• Join FlightAware (Why Join?)
  • Login
  • US Flag 
02:26AM EDT


 

Airport Tracker/Info


-or-


 

Live Flight TrackerFlight Track Log ✈ F-GSPR ✈ 24-Apr-2013 ✈ LFPG / CDG - KATL

Flight Track Log - Related Links

Times and Time Zones

All times are in EDT time to prevent confusion due to time zone crossing. See the F-GSPR flight status page for this flight to view local times or setup timezone preferences in your user account.

Time Position Orientation Groundspeed Altitude Reporting Facility
EDT Latitude Longitude Course Direction KTS MPH feet Rate Location/Type
08:12AM 49.0971 2.2211 260° West  Level Estimated
08:13AM 49.1409 2.0497 261° West  Level Estimated
08:14AM 49.1845 1.8780 264° West  Level Estimated
08:15AM 49.2279 1.7060 259° West  Level Estimated
08:16AM 49.1401 1.5797 223° Southwest  Level FlightAware Approximate
08:17AM 49.0523 1.4539 223° Southwest  Level FlightAware Approximate
08:19AM 48.9955 2.5511 264° West 180 207 500  Level FlightAware ADS-B
08:19AM 48.9947 2.5428 262° West 181 208 800 2,580 Climbing FlightAware ADS-B
08:19AM 48.9936 2.5307 262° West 180 207 1,200 2,700 Climbing FlightAware ADS-B
08:19AM 48.9926 2.5175 263° West 179 206 1,700 2,340 Climbing FlightAware ADS-B
08:19AM 48.9915 2.5017 264° West 184 212 2,100 1,680 Climbing FlightAware ADS-B
08:20AM 48.9902 2.4821 264° West 187 215 2,500 1,740 Climbing FlightAware ADS-B
08:20AM 48.9895 2.4707 265° West 185 213 2,800 1,860 Climbing FlightAware ADS-B
08:20AM 48.9889 2.4575 266° West 188 216 3,100 1,560 Climbing FlightAware ADS-B
08:20AM 48.9878 2.4392 265° West 194 223 3,400 1,320 Climbing FlightAware ADS-B
08:20AM 48.9869 2.4265 264° West 201 231 3,600 960 Climbing FlightAware ADS-B
08:20AM 48.9861 2.4144 264° West 210 242 3,700 720 Climbing FlightAware ADS-B
08:21AM 48.9849 2.3918 265° West 226 260 3,900 780 Climbing FlightAware ADS-B
08:21AM 48.9835 2.3681 265° West 245 282 4,100 1,020 Climbing FlightAware ADS-B
08:21AM 48.9818 2.3417 264° West 259 298 4,400 1,380 Climbing FlightAware ADS-B
08:21AM 48.9799 2.3133 264° West 269 310 4,800 1,980 Climbing FlightAware ADS-B
08:22AM 48.9779 2.2842 264° West 273 314 5,400 2,400 Climbing FlightAware ADS-B
08:22AM 48.9760 2.2572 264° West 274 315 6,000 2,520 Climbing FlightAware ADS-B
08:22AM 48.9746 2.2314 265° West 276 318 6,600 2,460 Climbing FlightAware ADS-B
08:22AM 48.9734 2.2011 267° West 278 320 7,200 2,160 Climbing FlightAware ADS-B
08:23AM 48.9720 2.1670 266° West 283 326 7,800 2,160 Climbing FlightAware ADS-B
08:23AM 48.9705 2.1353 266° West 286 329 8,400 2,280 Climbing FlightAware ADS-B
08:23AM 48.9696 2.1148 266° West 288 331 8,800 2,280 Climbing FlightAware ADS-B
08:23AM 48.9680 2.0836 266° West 290 334 9,400 1,920 Climbing FlightAware ADS-B
08:24AM 48.9642 2.0082 266° West 303 349 10,500 -360 Climbing FlightAware ADS-B
08:24AM 48.9783 2.0029 266° West 318 366 9,100 1,080 Descending FlightAware UK
08:24AM 48.9605 1.9347 266° West 323 372 11,100 1,620 Climbing FlightAware ADS-B
08:25AM 48.9634 1.9075 266° West 346 398 9,900 -1,560 Descending FlightAware UK
08:25AM 48.9557 1.8506 258° West 356 410 10,200 3,360 Climbing FlightAware UK
08:25AM 48.9527 1.7970 258° West 375 432 12,100 1,320 Climbing FlightAware ADS-B
08:26AM 48.9494 1.7575 258° West 384 442 11,000 -960 Descending FlightAware UK
08:26AM 48.9445 1.7066 262° West 392 451 11,600 6,240 Climbing FlightAware UK
08:26AM 48.9470 1.7070 262° West 384 442 13,300 6,480 Climbing FlightAware
08:26AM 48.9433 1.6474 265° West 383 441 14,100  Climbing FlightAware ADS-B
08:27AM 48.9389 1.5944 265° West 400 460 13,300 2,100 Descending FlightAware UK
08:27AM 48.9380 1.5690 265° West 388 447 15,200 1,980 Climbing FlightAware
08:28AM 48.9361 1.3962 265° West 414 476 15,700 900 Climbing FlightAware UK
08:28AM 48.9373 1.3289 272° West 418 481 16,500 1,860 Climbing FlightAware UK
08:29AM 48.9375 1.2603 270° West 422 486 17,200 1,860 Climbing FlightAware UK
08:29AM 48.9373 1.1917 270° West 426 490 18,000 1,680 Climbing FlightAware UK
08:29AM 48.9366 1.1401 269° West 428 493 18,400 1,500 Climbing FlightAware UK
08:30AM 48.9364 1.0880 270° West 432 497 18,900 1,680 Climbing FlightAware UK
08:30AM 48.9362 1.0178 270° West 438 504 19,600 1,740 Climbing FlightAware UK
08:30AM 48.9359 0.9472 270° West 442 509 20,300 1,680 Climbing FlightAware UK
08:31AM 48.9354 0.8409 270° West 448 516 21,300 1,620 Climbing FlightAware UK
08:31AM 48.9352 0.7871 270° West 452 520 21,800 1,500 Climbing FlightAware UK
08:32AM 48.9367 0.7330 273° West 452 520 22,200 1,320 Climbing FlightAware UK
08:32AM 48.9450 0.6789 283° West 458 527 22,600 1,320 Climbing FlightAware UK
08:33AM 48.9423 0.5703 268° West 460 529 23,400 1,320 Climbing FlightAware UK
08:33AM 48.9379 0.5160 263° West 462 532 23,800 1,140 Climbing FlightAware UK
08:33AM 48.9343 0.4604 264° West 466 536 24,100 1,140 Climbing FlightAware UK
08:34AM 48.9327 0.3862 268° West 470 541 24,600 1,260 Climbing FlightAware UK
08:34AM 48.9325 0.3113 270° West 474 545 25,100 1,200 Climbing FlightAware UK
08:34AM 48.9320 0.2359 270° West 478 550 25,600 1,140 Climbing FlightAware UK
08:35AM 48.9301 0.1785 267° West 480 552 25,900 1,140 Climbing FlightAware UK
08:35AM 48.9223 0.1017 261° West 484 557 26,400 1,260 Climbing FlightAware UK
08:35AM 48.9179 0.0444 263° West 486 559 26,800 1,080 Climbing FlightAware UK
08:36AM 48.9104 -0.0509 263° West 490 564 27,300 420 Climbing FlightAware UK
08:38AM 48.9783 -0.3353 290° West  Level Estimated
08:45AM 49.2582 -1.5505 290° West  Level Estimated
08:46AM 49.2971 -1.7253 289° West  Level Estimated
08:47AM 49.3358 -1.9003 289° West  Level Estimated
08:48AM 49.3742 -2.0755 289° West  Level Estimated
08:48AM 48.7269 -2.3334 289° West 488 562 32,500  Level FlightAware UK
08:49AM 48.7095 -2.5404 263° West 490 564 32,400 -120 Descending FlightAware UK
08:49AM 48.7050 -2.5978 263° West 490 564 32,400  Level FlightAware UK
08:50AM 48.6990 -2.6746 263° West 488 562 32,400 120 Level FlightAware UK
08:50AM 48.6806 -2.7465 249° West 488 562 32,500  Climbing FlightAware UK
08:50AM 48.6688 -2.8009 252° West 488 562 32,400 -180 Descending FlightAware UK
08:51AM 48.6598 -2.8571 256° West 488 562 32,400 120 Level FlightAware UK
08:51AM 48.6526 -2.9138 259° West 488 562 32,500  Climbing FlightAware UK
08:51AM 48.6393 -3.0263 260° West 490 564 32,400 -120 Descending FlightAware UK
08:52AM 48.6331 -3.0830 261° West 490 564 32,400 120 Level FlightAware UK
08:52AM 48.6252 -3.1582 261° West 490 564 32,500 120 Climbing FlightAware UK
08:52AM 48.6193 -3.2150 261° West 490 564 32,500  Level FlightAware UK
08:53AM 48.6115 -3.2912 261° West 490 564 32,500  Level FlightAware UK
08:53AM 48.6033 -3.3669 261° West 490 564 32,500  Level FlightAware UK
08:54AM 48.5950 -3.4416 260° West 490 564 32,500  Level FlightAware UK
08:54AM 48.5826 -3.5548 261° West 490 564 32,500  Level FlightAware UK
08:55AM 48.5763 -3.6114 261° West 490 564 32,500  Level FlightAware UK
08:55AM 48.5681 -3.6867 261° West 490 564 32,500 -180 Level FlightAware UK
08:55AM 48.5618 -3.7431 261° West 490 564 32,400 3,300 Descending FlightAware UK
08:55AM 48.5610 -3.7540 261° West 455 524 34,000 120 Climbing FlightAware
08:56AM 48.5491 -3.8552 261° West 490 564 32,500  Descending FlightAware UK
08:56AM 48.5470 -3.8790 261° West 454 522 34,000  Climbing FlightAware
08:56AM 48.5385 -3.9491 261° West 490 564 32,500  Descending FlightAware UK
08:57AM 48.5330 -4.0020 261° West 453 521 34,000  Climbing FlightAware
08:57AM 48.5213 -4.0988 261° West 490 564 32,500  Descending FlightAware UK
08:57AM 48.5180 -4.1290 260° West 452 520 34,000  Climbing FlightAware
08:57AM 48.5149 -4.1548 260° West 490 564 32,500 -3,480 Descending FlightAware UK
08:58AM 48.5063 -4.2293 260° West 490 564 32,500  Level FlightAware UK
08:58AM 48.4998 -4.2852 260° West 490 564 32,500 4,680 Level FlightAware UK
08:58AM 48.5020 -4.2680 260° West 452 520 34,000  Climbing FlightAware
08:58AM 48.4931 -4.3408 260° West 490 564 32,500 -2,580 Descending FlightAware UK
08:59AM 48.4865 -4.3965 260° West 490 564 32,500 3,180 Level FlightAware UK
08:59AM 48.4860 -4.4070 260° West 452 520 34,000  Climbing FlightAware
08:59AM 48.4755 -4.4893 260° West 490 564 32,500 -2,400 Descending FlightAware UK
09:00AM 48.4689 -4.5449 260° West 490 564 32,500 4,500 Level FlightAware UK
09:00AM 48.4710 -4.5310 260° West 452 520 34,000  Climbing FlightAware
09:00AM 48.4621 -4.6004 260° West 490 564 32,500 -2,700 Descending FlightAware UK
09:00AM 48.4554 -4.6560 260° West 490 564 32,500 3,720 Level FlightAware UK
09:00AM 48.4560 -4.6540 260° West 452 520 34,000  Climbing FlightAware
09:01AM 48.4466 -4.7301 260° West 490 564 32,500 -2,520 Descending FlightAware UK
09:01AM 48.4399 -4.7849 260° West 490 564 32,500 3,300 Level FlightAware UK
09:01AM 48.4390 -4.7960 260° West 452 520 34,000  Climbing FlightAware
09:01AM 48.4308 -4.8590 260° West 490 564 32,500  Descending FlightAware UK
09:02AM 48.4220 -4.9360 260° West 451 519 34,000  Climbing FlightAware
09:02AM 48.4125 -5.0068 260° West 490 564 32,500 -2,160 Descending FlightAware UK
09:02AM 48.4034 -5.0808 260° West 490 564 32,500  Level FlightAware UK
09:03AM 48.3964 -5.1362 259° West 490 564 32,500  Level FlightAware UK
09:03AM 48.3896 -5.1916 260° West 490 564 32,500 2,520 Level FlightAware UK
09:03AM 48.3850 -5.2330 260° West 450 518 34,000  Climbing FlightAware
09:04AM 48.3759 -5.3022 260° West 490 564 32,500 -2,460 Descending FlightAware UK
09:04AM 48.3687 -5.3573 259° West 490 564 32,500 4,260 Level FlightAware UK
09:04AM 48.3690 -5.3590 259° West 450 518 34,000  Climbing FlightAware
09:04AM 48.3622 -5.4127 259° West 490 564 32,500 -2,760 Descending FlightAware UK
09:05AM 48.3555 -5.4679 260° West 490 564 32,500 3,000 Level FlightAware UK
09:05AM 48.3520 -5.4900 260° West 450 518 34,000  Climbing FlightAware
09:05AM 48.3438 -5.5599 260° West 490 564 32,500 -2,520 Descending FlightAware UK
09:05AM 48.3366 -5.6149 259° West 490 564 32,500 4,080 Level FlightAware UK
09:05AM 48.3350 -5.6190 259° West 449 517 34,000  Climbing FlightAware
09:06AM 48.3272 -5.6883 259° West 490 564 32,500 -2,400 Descending FlightAware UK
09:06AM 48.3201 -5.7433 259° West 490 564 32,500 4,500 Level FlightAware UK
09:06AM 48.3190 -5.7420 259° West 449 517 34,000  Climbing FlightAware
09:06AM 48.3130 -5.7983 259° West 490 564 32,500 -2,880 Descending FlightAware UK
09:07AM 48.3057 -5.8524 259° West 490 564 32,400 3,720 Descending FlightAware UK
09:07AM 48.3050 -5.8520 259° West 448 516 34,000  Climbing FlightAware
09:07AM 48.2960 -5.9254 259° West 490 564 32,400 -2,220 Descending FlightAware UK
09:07AM 48.2888 -5.9802 259° West 490 564 32,700 4,440 Climbing FlightAware UK
09:07AM 48.2850 -6.0000 259° West 448 516 34,400 1,200 Climbing FlightAware
09:08AM 48.2784 -6.0525 259° West 488 562 33,200 -1,680 Descending FlightAware UK
09:08AM 48.2707 -6.1067 258° West 488 562 33,500 3,780 Climbing FlightAware UK
09:08AM 48.2670 -6.1350 258° West 445 512 35,100 780 Climbing FlightAware
09:09AM 48.2587 -6.1973 258° West 486 559 33,900 -1,500 Descending FlightAware UK
09:09AM 48.2515 -6.2517 259° West 486 559 34,200 4,860 Climbing FlightAware UK
09:09AM 48.2510 -6.2520 259° West 444 511 35,700 720 Climbing FlightAware
09:09AM 48.2416 -6.3238 259° West 486 559 34,500 -1,920 Descending FlightAware UK
09:10AM 48.2342 -6.3777 258° West 484 557 34,500 4,500 Level FlightAware UK
09:10AM 48.2350 -6.3750 258° West 439 505 36,000  Climbing FlightAware
09:10AM 48.2271 -6.4314 258° West 482 555 34,500 -2,700 Descending FlightAware UK
09:10AM 48.2197 -6.4850 258° West 484 557 34,500  Level FlightAware UK
09:10AM 48.2122 -6.5384 258° West 484 557 34,500  Level FlightAware UK
09:11AM 48.2047 -6.5916 258° West 484 557 34,500 -180 Level FlightAware UK
09:11AM 48.1974 -6.6447 258° West 484 557 34,400 -180 Descending FlightAware UK
09:11AM 48.1900 -6.6979 258° West 484 557 34,400  Level FlightAware UK
09:12AM 48.1825 -6.7511 258° West 486 559 34,400  Level FlightAware UK
09:12AM 48.1750 -6.8043 258° West 484 557 34,400  Level FlightAware UK
09:12AM 48.1674 -6.8577 258° West 484 557 34,400  Level FlightAware UK
09:13AM 48.1600 -6.9104 258° West 484 557 34,400 4,800 Level FlightAware UK
09:13AM 48.1630 -6.8910 258° West 438 504 36,000  Climbing FlightAware
09:13AM 48.1523 -6.9636 258° West 484 557 34,400 -2,880 Descending FlightAware UK
09:13AM 48.1447 -7.0169 258° West 486 559 34,400 3,960 Level FlightAware UK
09:13AM 48.1490 -6.9920 258° West 438 504 36,000  Climbing FlightAware
09:14AM 48.1345 -7.0879 258° West 484 557 34,400 -2,700 Descending FlightAware UK
09:14AM 48.1269 -7.1410 258° West 484 557 34,400  Level FlightAware UK
09:14AM 48.1192 -7.1941 258° West 482 555 34,400 120 Level FlightAware UK
09:14AM 48.1116 -7.2472 258° West 482 555 34,500 2,640 Climbing FlightAware UK
09:15AM 48.1070 -7.2730 258° West 436 502 36,000  Climbing FlightAware
09:15AM 48.0963 -7.3533 258° West 484 557 34,500 -2,520 Descending FlightAware UK
09:15AM 48.0885 -7.4064 258° West 484 557 34,500 4,080 Level FlightAware UK
09:15AM 48.0920 -7.3730 258° West 436 502 36,000 2,040 Climbing FlightAware
09:16AM 48.0760 -7.4730 257° West 436 502 36,000  Level FlightAware
09:17AM 48.0610 -7.5730 257° West 436 502 36,000  Level FlightAware
09:18AM 48.0420 -7.6980 257° West 436 502 36,000  Level FlightAware
09:18AM 48.0260 -7.7980 257° West 436 502 36,000  Level FlightAware
09:19AM 48.1720 -6.8270 77° East 36,000  Level FlightAware
09:21AM 48.2306 -7.1317 286° West  Level Estimated
09:22AM 48.2613 -7.2938 286° West  Level Estimated
09:23AM 48.2919 -7.4561 286° West  Level Estimated
09:24AM 48.3222 -7.6185 286° West  Level Estimated
09:25AM 48.3523 -7.7812 286° West  Level Estimated
09:26AM 48.3821 -7.9440 285° West  Level Estimated
09:27AM 48.4117 -8.1071 285° West  Level Estimated
09:28AM 48.4411 -8.2703 285° West  Level Estimated
09:29AM 48.4703 -8.4337 285° West  Level Estimated
09:30AM 48.4992 -8.5973 285° West  Level Estimated
09:31AM 48.5279 -8.7611 285° West  Level Estimated
09:32AM 48.5564 -8.9251 285° West  Level Estimated
09:33AM 48.5846 -9.0893 285° West  Level Estimated
09:34AM 48.6126 -9.2536 285° West  Level Estimated
09:35AM 48.6404 -9.4181 284° West  Level Estimated
09:36AM 48.6679 -9.5828 284° West  Level Estimated
09:37AM 48.6952 -9.7477 284° West  Level Estimated
09:38AM 48.7222 -9.9128 284° West  Level Estimated
09:39AM 48.7491 -10.0780 284° West  Level Estimated
09:40AM 48.7756 -10.2434 284° West  Level Estimated
09:41AM 48.8020 -10.4090 284° West  Level Estimated
09:42AM 48.8281 -10.5748 284° West  Level Estimated
09:43AM 48.8540 -10.7407 283° West  Level Estimated
09:44AM 48.8796 -10.9068 283° West  Level Estimated
09:45AM 48.9050 -11.0731 283° West  Level Estimated
09:46AM 48.9301 -11.2395 283° West  Level Estimated
09:47AM 48.9551 -11.4061 283° West  Level Estimated
09:48AM 48.9797 -11.5729 283° West  Level Estimated
09:49AM 49.0042 -11.7398 283° West  Level Estimated
09:50AM 49.0284 -11.9069 283° West  Level Estimated
09:51AM 49.0523 -12.0742 282° West  Level Estimated
09:52AM 49.0760 -12.2416 282° West  Level Estimated
09:53AM 49.0995 -12.4092 282° West  Level Estimated
09:54AM 49.1227 -12.5769 282° West  Level Estimated
09:55AM 49.1457 -12.7448 282° West  Level Estimated
09:56AM 49.1684 -12.9129 282° West  Level Estimated
09:57AM 49.1908 -13.0802 282° West  Level Estimated
09:58AM 49.2129 -13.2477 281° West  Level Estimated
09:59AM 49.2348 -13.4154 281° West  Level Estimated
10:00AM 49.2565 -13.5832 281° West  Level Estimated
10:01AM 49.2779 -13.7511 281° West  Level Estimated
10:02AM 49.2991 -13.9192 281° West  Level Estimated
10:03AM 49.3200 -14.0874 281° West  Level Estimated
10:04AM 49.3407 -14.2558 281° West  Level Estimated
10:05AM 49.3611 -14.4243 281° West  Level Estimated
10:06AM 49.3813 -14.5930 280° West  Level Estimated
10:07AM 49.4012 -14.7618 280° West  Level Estimated
10:08AM 49.4209 -14.9307 280° West  Level Estimated
10:09AM 49.4404 -15.0998 280° West  Level Estimated
10:10AM 49.4596 -15.2690 280° West  Level Estimated
10:11AM 49.4785 -15.4383 280° West  Level Estimated
10:12AM 49.4972 -15.6077 280° West  Level Estimated
10:13AM 49.5157 -15.7773 280° West  Level Estimated
10:14AM 49.5339 -15.9471 279° West  Level Estimated
10:15AM 49.5519 -16.1169 279° West  Level Estimated
10:16AM 49.5696 -16.2868 279° West  Level Estimated
10:17AM 49.5871 -16.4569 279° West  Level Estimated
10:18AM 49.6043 -16.6271 279° West  Level Estimated
10:19AM 49.6213 -16.7975 279° West  Level Estimated
10:20AM 49.6380 -16.9679 279° West  Level Estimated
10:21AM 49.6544 -17.1385 279° West  Level Estimated
10:22AM 49.6707 -17.3092 278° West  Level Estimated
10:23AM 49.6866 -17.4800 278° West  Level Estimated
10:24AM 49.7024 -17.6509 278° West  Level Estimated
10:25AM 49.7178 -17.8219 278° West  Level Estimated
10:26AM 49.7330 -17.9930 278° West  Level Estimated
10:26AM 48.0000 -20.0000 274° West 445 512 36,000  Level ETMS Enhanced Traffic Management System
10:27AM 49.7480 -18.1642 278° West  Level Estimated
10:28AM 49.7627 -18.3355 278° West  Level Estimated
10:29AM 49.7771 -18.5070 278° West  Level Estimated
10:30AM 49.7913 -18.6785 277° West  Level Estimated
10:31AM 49.8053 -18.8501 277° West  Level Estimated
10:32AM 48.0429 -21.1089 273° West 445 512 36,000  Level FlightAware Transoceanic
10:33AM 48.0490 -21.2939 273° West 445 512 36,000  Level FlightAware Transoceanic
10:34AM 48.0548 -21.4790 273° West 445 512 36,000  Level FlightAware Transoceanic
10:35AM 48.0603 -21.6641 272° West 445 512 36,000  Level FlightAware Transoceanic
10:36AM 48.0655 -21.8492 272° West 445 512 36,000  Level FlightAware Transoceanic
10:37AM 48.0704 -22.0343 272° West 445 512 36,000  Level FlightAware Transoceanic
10:38AM 48.0751 -22.2195 272° West 445 512 36,000  Level FlightAware Transoceanic
10:39AM 48.0794 -22.4047 272° West 445 512 36,000  Level FlightAware Transoceanic
10:40AM 48.0834 -22.5900 272° West 445 512 36,000  Level FlightAware Transoceanic
10:41AM 48.0871 -22.7753 272° West 445 512 36,000  Level FlightAware Transoceanic
10:42AM 48.0906 -22.9606 272° West 445 512 36,000  Level FlightAware Transoceanic
10:43AM 48.0937 -23.1459 271° West 445 512 36,000  Level FlightAware Transoceanic
10:44AM 48.0965 -23.3312 271° West 445 512 36,000  Level FlightAware Transoceanic
10:45AM 48.0991 -23.5166 271° West 445 512 36,000  Level FlightAware Transoceanic
10:46AM 48.1013 -23.7020 271° West 445 512 36,000  Level FlightAware Transoceanic
10:47AM 48.1032 -23.8874 271° West 445 512 36,000  Level FlightAware Transoceanic
10:48AM 48.1049 -24.0728 271° West 445 512 36,000  Level FlightAware Transoceanic
10:49AM 48.1062 -24.2582 271° West 445 512 36,000  Level FlightAware Transoceanic
10:50AM 48.1073 -24.4437 270° West 445 512 36,000  Level FlightAware Transoceanic
10:51AM 48.1080 -24.6291 270° West 445 512 36,000  Level FlightAware Transoceanic
10:52AM 48.1085 -24.8146 270° West 445 512 36,000  Level FlightAware Transoceanic
10:52AM 48.1333 -24.7500 270° West 451 519 36,000  Level ETMS Enhanced Traffic Management System
10:53AM 48.1086 -25.0000 270° West 445 512 36,000  Level FlightAware Transoceanic
10:54AM 48.1085 -25.1854 270° West 445 512 36,000  Level FlightAware Transoceanic
10:55AM 48.1080 -25.3709 270° West 445 512 36,000  Level FlightAware Transoceanic
10:56AM 48.1073 -25.5563 270° West 445 512 36,000  Level FlightAware Transoceanic
10:57AM 48.1062 -25.7418 269° West 445 512 36,000  Level FlightAware Transoceanic
10:58AM 48.1249 -25.8769 269° West 451 519 36,000  Level FlightAware Transoceanic
10:59AM 48.1224 -26.0647 269° West 451 519 36,000  Level FlightAware Transoceanic
11:00AM 48.1197 -26.2524 269° West 451 519 36,000  Level FlightAware Transoceanic
11:01AM 48.1166 -26.4401 269° West 451 519 36,000  Level FlightAware Transoceanic
11:02AM 48.1132 -26.6279 268° West 451 519 36,000  Level FlightAware Transoceanic
11:03AM 48.1095 -26.8155 268° West 451 519 36,000  Level FlightAware Transoceanic
11:04AM 48.1055 -27.0032 268° West 451 519 36,000  Level FlightAware Transoceanic
11:05AM 48.1012 -27.1908 268° West 451 519 36,000  Level FlightAware Transoceanic
11:06AM 48.0966 -27.3784 268° West 451 519 36,000  Level FlightAware Transoceanic
11:07AM 48.0916 -27.5660 268° West 451 519 36,000  Level FlightAware Transoceanic
11:08AM 48.0864 -27.7535 268° West 451 519 36,000  Level FlightAware Transoceanic
11:09AM 48.0809 -27.9410 267° West 451 519 36,000  Level FlightAware Transoceanic
11:10AM 48.0751 -28.1284 267° West 451 519 36,000  Level FlightAware Transoceanic
11:11AM 48.0689 -28.3158 267° West 451 519 36,000  Level FlightAware Transoceanic
11:12AM 48.0625 -28.5031 267° West 451 519 36,000  Level FlightAware Transoceanic
11:13AM 48.0557 -28.6904 267° West 451 519 36,000  Level FlightAware Transoceanic
11:14AM 48.0487 -28.8777 267° West 451 519 36,000  Level FlightAware Transoceanic
11:15AM 48.0413 -29.0649 267° West 451 519 36,000  Level FlightAware Transoceanic
11:16AM 48.0337 -29.2520 266° West 451 519 36,000  Level FlightAware Transoceanic
11:17AM 48.0257 -29.4391 266° West 451 519 36,000  Level FlightAware Transoceanic
11:18AM 48.0174 -29.6261 266° West 451 519 36,000  Level FlightAware Transoceanic
11:19AM 48.0089 -29.8131 266° West 451 519 36,000  Level FlightAware Transoceanic
11:20AM 48.0323 -29.9763 282° West  Level FlightAware Approximate
11:21AM 48.0555 -30.1397 282° West  Level FlightAware Approximate
11:22AM 48.0272 -30.1277 266° West  Level FlightAware Approximate
11:23AM 48.0198 -30.2943 266° West  Level FlightAware Approximate
11:24AM 48.0122 -30.4608 266° West  Level FlightAware Approximate
11:25AM 48.0044 -30.6273 266° West  Level FlightAware Approximate
11:26AM 47.9963 -30.7937 266° West  Level FlightAware Approximate
11:27AM 47.9880 -30.9601 266° West  Level FlightAware Approximate
11:28AM 47.9795 -31.1264 266° West  Level FlightAware Approximate
11:29AM 47.9707 -31.2927 266° West  Level FlightAware Approximate
11:30AM 47.9618 -31.4589 266° West  Level FlightAware Approximate
11:31AM 47.9528 -31.6251 265° West  Level FlightAware Approximate
11:32AM 47.9436 -31.7913 265° West  Level FlightAware Approximate
11:33AM 47.9341 -31.9574 265° West  Level FlightAware Approximate
11:34AM 47.9244 -32.1234 265° West  Level FlightAware Approximate
11:35AM 47.9145 -32.2893 265° West  Level FlightAware Approximate
11:36AM 47.9043 -32.4552 265° West  Level FlightAware Approximate
11:37AM 47.8939 -32.6210 265° West  Level FlightAware Approximate
11:38AM 47.8832 -32.7868 265° West  Level FlightAware Approximate
11:39AM 47.8723 -32.9525 264° West  Level FlightAware Approximate
11:40AM 47.8612 -33.1181 264° West  Level FlightAware Approximate
11:41AM 47.8498 -33.2836 264° West  Level FlightAware Approximate
11:42AM 47.8382 -33.4491 264° West  Level FlightAware Approximate
11:43AM 47.8264 -33.6145 264° West  Level FlightAware Approximate
11:44AM 47.8143 -33.7798 264° West  Level FlightAware Approximate
11:45AM 47.8020 -33.9451 264° West  Level FlightAware Approximate
11:46AM 47.7894 -34.1102 264° West  Level FlightAware Approximate
11:47AM 47.7766 -34.2753 263° West  Level FlightAware Approximate
11:48AM 47.7636 -34.4403 263° West  Level FlightAware Approximate
11:49AM 47.7503 -34.6052 263° West  Level FlightAware Approximate
11:50AM 47.7368 -34.7701 263° West  Level FlightAware Approximate
11:51AM 47.7231 -34.9348 263° West  Level FlightAware Approximate
11:52AM 47.7091 -35.0995 263° West  Level FlightAware Approximate
11:53AM 47.6949 -35.2640 263° West  Level FlightAware Approximate
11:54AM 47.6805 -35.4285 263° West  Level FlightAware Approximate
11:55AM 47.6658 -35.5929 263° West  Level FlightAware Approximate
11:56AM 47.6509 -35.7572 262° West  Level FlightAware Approximate
11:57AM 47.6357 -35.9214 262° West  Level FlightAware Approximate
11:58AM 47.6203 -36.0855 262° West  Level FlightAware Approximate
11:59AM 47.6047 -36.2495 262° West  Level FlightAware Approximate
12:00PM 47.5889 -36.4134 262° West  Level FlightAware Approximate
12:01PM 47.5728 -36.5772 262° West  Level FlightAware Approximate
12:02PM 47.5565 -36.7409 262° West  Level FlightAware Approximate
12:03PM 47.5399 -36.9045 262° West  Level FlightAware Approximate
12:04PM 47.5231 -37.0680 261° West  Level FlightAware Approximate
12:05PM 47.5061 -37.2314 261° West  Level FlightAware Approximate
12:06PM 47.4889 -37.3947 261° West  Level FlightAware Approximate
12:07PM 47.4714 -37.5579 261° West  Level FlightAware Approximate
12:08PM 47.4537 -37.7210 261° West  Level FlightAware Approximate
12:09PM 47.4357 -37.8839 261° West  Level FlightAware Approximate
12:10PM 47.4176 -38.0468 261° West  Level FlightAware Approximate
12:11PM 47.3992 -38.2095 261° West  Level FlightAware Approximate
12:12PM 47.3806 -38.3721 260° West  Level FlightAware Approximate
12:13PM 47.3617 -38.5346 260° West  Level FlightAware Approximate
12:14PM 47.3426 -38.6970 260° West  Level FlightAware Approximate
12:15PM 47.3233 -38.8593 260° West  Level FlightAware Approximate
12:16PM 47.3037 -39.0214 260° West  Level FlightAware Approximate
12:17PM 47.2840 -39.1835 260° West  Level FlightAware Approximate
12:18PM 47.2639 -39.3454 260° West  Level FlightAware Approximate
12:19PM 47.2437 -39.5072 260° West  Level FlightAware Approximate
12:20PM 47.2233 -39.6688 260° West  Level FlightAware Approximate
12:21PM 47.2111 -39.8487 264° West  Level Estimated
12:22PM 47.1986 -40.0284 264° West  Level Estimated
12:23PM 47.1859 -40.2081 264° West  Level Estimated
12:24PM 47.1729 -40.3877 264° West  Level Estimated
12:25PM 47.1596 -40.5672 264° West  Level Estimated
12:26PM 47.1460 -40.7467 264° West  Level Estimated
12:27PM 47.1321 -40.9260 264° West  Level Estimated
12:28PM 47.1180 -41.1052 263° West  Level Estimated
12:29PM 47.1036 -41.2843 263° West  Level Estimated
12:30PM 47.0889 -41.4634 263° West  Level Estimated
12:31PM 47.0739 -41.6423 263° West  Level Estimated
12:32PM 47.0587 -41.8211 263° West  Level Estimated
12:33PM 47.0431 -41.9999 263° West  Level Estimated
12:34PM 47.0273 -42.1785 263° West  Level Estimated
12:35PM 47.0112 -42.3570 263° West  Level Estimated
12:36PM 46.9949 -42.5354 262° West  Level Estimated
12:37PM 46.9782 -42.7137 262° West  Level Estimated
12:38PM 46.9613 -42.8919 262° West  Level Estimated
12:39PM 46.9441 -43.0700 262° West  Level Estimated
12:40PM 46.9266 -43.2479 262° West  Level Estimated
12:41PM 46.9089 -43.4258 262° West  Level Estimated
12:42PM 46.8909 -43.6035 262° West  Level Estimated
12:43PM 46.8726 -43.7811 261° West  Level Estimated
12:44PM 46.8540 -43.9586 261° West  Level Estimated
12:45PM 46.8352 -44.1359 261° West  Level Estimated
12:46PM 46.8160 -44.3131 261° West  Level Estimated
12:47PM 46.7966 -44.4903 261° West  Level Estimated
12:48PM 46.7770 -44.6672 261° West  Level Estimated
12:49PM 46.7570 -44.8441 261° West  Level Estimated
12:50PM 46.7368 -45.0208 261° West  Level Estimated
12:51PM 46.7164 -45.1974 260° West  Level Estimated
12:52PM 46.6956 -45.3738 260° West  Level Estimated
12:53PM 46.6746 -45.5502 260° West  Level Estimated
12:54PM 46.6533 -45.7263 260° West  Level Estimated
12:55PM 46.6317 -45.9024 260° West  Level Estimated
12:56PM 46.6099 -46.0782 260° West  Level Estimated
12:57PM 46.5878 -46.2540 260° West  Level Estimated
12:58PM 46.5654 -46.4296 260° West  Level Estimated
12:59PM 46.5428 -46.6051 259° West  Level Estimated
01:00PM 46.5199 -46.7804 259° West  Level Estimated
01:01PM 46.4967 -46.9555 259° West  Level Estimated
01:02PM 46.4733 -47.1305 259° West  Level Estimated
01:03PM 46.4496 -47.3054 259° West  Level Estimated
01:04PM 46.4256 -47.4801 259° West  Level Estimated
01:05PM 46.4013 -47.6547 259° West  Level Estimated
01:06PM 46.3768 -47.8291 259° West  Level Estimated
01:07PM 46.3521 -48.0033 258° West  Level Estimated
01:08PM 46.3270 -48.1774 258° West  Level Estimated
01:09PM 46.3017 -48.3513 258° West  Level Estimated
01:10PM 46.2762 -48.5251 258° West  Level Estimated
01:10PM 44.3500 -48.5667 252° West 444 511 37,000  Level New York Oceanic (ODAPS)
01:11PM 46.2503 -48.6987 258° West  Level Estimated
01:12PM 46.2242 -48.8721 258° West  Level Estimated
01:13PM 46.1979 -49.0454 258° West  Level Estimated
01:14PM 46.1713 -49.2183 258° West  Level Estimated
01:15PM 46.1445 -49.3910 257° West  Level Estimated
01:16PM 46.1173 -49.5636 257° West  Level Estimated
01:17PM 44.0892 -49.6433 251° West 444 511 37,000  Level FlightAware Transoceanic
01:18PM 44.0447 -49.8218 251° West 444 511 37,000  Level FlightAware Transoceanic
01:19PM 44.0000 -50.0000 274° West 444 511 37,000  Level FlightAware Transoceanic
01:20PM 44.0088 -50.1654 274° West 444 511 37,000  Level FlightAware Transoceanic
01:20PM 44.0000 -50.0000 274° West 420 483 37,000  Level New York Oceanic (ODAPS)
01:21PM 44.0173 -50.3307 274° West 444 511 37,000  Level FlightAware Transoceanic
01:22PM 44.0256 -50.4962 274° West 444 511 37,000  Level FlightAware Transoceanic
01:23PM 44.0337 -50.6617 274° West 444 511 37,000  Level FlightAware Transoceanic
01:24PM 44.0415 -50.8272 274° West 444 511 37,000  Level FlightAware Transoceanic
01:25PM 44.0491 -50.9928 274° West 444 511 37,000  Level FlightAware Transoceanic
01:26PM 44.0564 -51.1584 273° West 444 511 37,000  Level FlightAware Transoceanic
01:26PM 44.0333 -51.0667 273° West 440 506 37,000  Level Gander Center
01:27PM 44.0604 -51.2505 273° West 420 483 37,000  Level FlightAware Transoceanic
01:27PM 44.0333 -51.2333 270° West 420 483 37,000  Level Gander Center
01:28PM 44.0670 -51.4070 273° West 420 483 37,000  Level FlightAware Transoceanic
01:28PM 44.0500 -51.4000 278° West 420 483 37,000  Level Gander Center
01:29PM 44.0734 -51.5635 273° West 420 483 37,000  Level FlightAware Transoceanic
01:29PM 44.0500 -51.5333 270° West 430 495 37,000  Level Gander Center
01:30PM 44.0795 -51.7200 273° West 420 483 37,000  Level FlightAware Transoceanic
01:30PM 44.0667 -51.7167 277° West 430 495 37,000  Level Gander Center
01:30PM 44.0833 -51.8667 273° West 423 487 37,000  Level New York Oceanic (ODAPS)
01:31PM 44.0855 -51.8766 273° West 420 483 37,000  Level FlightAware Transoceanic
01:31PM 44.0667 -51.8833 273° West 410 472 37,000  Level Gander Center
01:32PM 44.0833 -52.0500 278° West 430 495 37,000  Level Gander Center
01:33PM 44.0833 -52.2000 270° West 430 495 37,000  Level Gander Center
01:34PM 44.0833 -52.3667 270° West 430 495 37,000  Level Gander Center
01:35PM 44.0833 -52.5333 270° West 420 483 37,000  Level Gander Center
01:36PM 44.1000 -52.6833 279° West 420 483 37,000  Level Gander Center
01:37PM 44.1000 -52.8500 270° West 420 483 37,000  Level Gander Center
01:38PM 44.1167 -53.0167 278° West 420 483 37,000  Level Gander Center
01:39PM 44.1000 -53.1833 262° West 420 483 37,000  Level Gander Center
01:40PM 44.1167 -53.3333 279° West 420 483 37,000  Level Gander Center
01:41PM 44.1333 -53.5000 278° West 430 495 37,000  Level Gander Center
01:42PM 44.1167 -53.6667 262° West 420 483 37,000  Level Gander Center
01:43PM 44.1333 -53.8333 278° West 420 483 37,000  Level Gander Center
01:44PM 44.1333 -53.9833 270° West 410 472 37,000  Level Gander Center
01:45PM 44.1333 -54.1500 270° West 420 483 37,000  Level Gander Center
01:46PM 44.1333 -54.3333 270° West 440 506 37,000  Level Gander Center
01:47PM 44.1500 -54.5000 278° West 410 472 37,000  Level Gander Center
01:48PM 44.1333 -54.6333 260° West 430 495 37,000  Level Gander Center
01:49PM 44.1500 -54.8500 276° West 430 495 37,000  Level Gander Center
01:50PM 44.1500 -54.9833 270° West 430 495 37,000  Level Gander Center
01:52PM 44.1167 -55.3167 262° West 400 460 37,000  Level Gander Center
01:53PM 44.1000 -55.4833 262° West 430 495 37,000  Level Gander Center
01:54PM 44.1000 -55.6500 270° West 430 495 37,000  Level Gander Center
01:55PM 44.0667 -55.8333 256° West 430 495 37,000  Level Moncton Center
01:56PM 44.0667 -55.9667 270° West 430 495 37,000  Level Gander Center
02:02PM 44.0020 -56.9860 270° West 428 493 37,000  Level FlightAware
02:03PM 43.9950 -57.1100 266° West 428 493 37,000  Level FlightAware
02:03PM 43.9910 -57.1940 266° West 428 493 37,000  Level FlightAware
02:04PM 43.9860 -57.3280 267° West 431 496 37,000  Level FlightAware
02:05PM 43.9810 -57.4250 266° West 431 496 37,000  Level FlightAware
02:05PM 43.9750 -57.5840 267° West 432 497 37,000  Level FlightAware
02:06PM 43.9700 -57.6780 266° West 432 497 37,000  Level FlightAware
02:07PM 43.9630 -57.8400 267° West 433 498 37,000  Level FlightAware
02:08PM 43.9590 -57.9280 266° West 433 498 37,000 -360 Level FlightAware
02:08PM 43.9520 -58.0650 266° West 433 498 36,500 -360 Descending FlightAware
02:09PM 43.9470 -58.1590 266° West 433 498 36,500  Level FlightAware
02:10PM 43.9420 -58.2530 266° West 433 498 36,500  Level FlightAware
02:10PM 43.9380 -58.3480 267° West 433 498 36,500 -300 Level FlightAware
02:11PM 43.9250 -58.5820 266° West 437 503 36,000 -300 Descending FlightAware
02:12PM 43.9190 -58.6920 266° West 438 504 36,000  Level FlightAware
02:13PM 43.9130 -58.8080 266° West 440 506 36,000  Level FlightAware
02:13PM 43.9060 -58.9280 265° West 443 510 36,000  Level FlightAware
02:14PM 43.8990 -59.0310 265° West 444 511 36,000  Level FlightAware
02:15PM 43.8930 -59.1280 265° West 444 511 36,000  Level FlightAware
02:15PM 43.8870 -59.2240 265° West 444 511 36,000  Level FlightAware
02:16PM 43.8810 -59.3210 265° West 444 511 36,000  Level FlightAware
02:17PM 43.8740 -59.4420 265° West 444 511 36,000  Level FlightAware
02:17PM 43.8690 -59.5140 265° West 444 511 36,000  Level FlightAware
02:18PM 43.8630 -59.6100 265° West 444 511 36,000  Level FlightAware
02:19PM 43.8550 -59.7310 265° West 444 511 36,000  Level FlightAware
02:20PM 43.8490 -59.8280 265° West 444 511 36,000  Level FlightAware
02:20PM 43.8430 -59.9240 265° West 444 511 36,000  Level FlightAware
02:21PM 43.8370 -60.0200 265° West 444 511 36,000  Level FlightAware
02:22PM 43.8310 -60.1170 265° West 444 511 36,000  Level FlightAware
02:22PM 43.8230 -60.2370 265° West 444 511 36,000  Level FlightAware
02:23PM 43.8170 -60.3340 265° West 444 511 36,000  Level FlightAware
02:24PM 43.7833 -60.6333 265° West 440 506 36,000  Level Gander Center
02:25PM 43.7667 -60.8167 263° West 450 518 36,000  Level Gander Center
02:26PM 43.7667 -60.9833 270° West 440 506 36,000  Level Gander Center
02:27PM 43.7500 -61.1667 263° West 440 506 36,000  Level Gander Center
02:28PM 43.7333 -61.3333 262° West 440 506 36,000  Level Gander Center
02:29PM 43.7167 -61.4833 261° West 440 506 36,000  Level Gander Center
02:30PM 43.7000 -61.6500 262° West 430 495 36,000  Level Gander Center
02:31PM 43.7000 -61.8333 270° West 430 495 36,000  Level Gander Center
02:32PM 43.6833 -62.0000 262° West 430 495 36,000  Level Gander Center
02:33PM 43.6500 -62.1333 251° West 430 495 36,000  Level Gander Center
02:34PM 43.6333 -62.3167 263° West 440 506 36,000  Level Gander Center
02:35PM 43.6333 -62.4833 270° West 430 495 36,000  Level Gander Center
02:36PM 43.6167 -62.6333 261° West 430 495 36,000  Level Gander Center
02:37PM 43.6000 -62.8000 262° West 440 506 36,000  Level Gander Center
02:38PM 43.5833 -62.9833 263° West 430 495 36,000  Level Gander Center
02:39PM 43.5667 -63.1500 262° West 440 506 36,000  Level Gander Center
02:40PM 43.5667 -63.3000 270° West 450 518 36,000  Level Gander Center
02:41PM 43.5333 -63.5000 257° West 440 506 36,000  Level Moncton Center
02:42PM 43.5167 -63.6667 262° West 440 506 36,000  Level Moncton Center
02:48PM 43.4340 -64.6250 262° West 422 486 36,000  Level FlightAware
02:48PM 43.4220 -64.7320 261° West 421 484 36,000  Level FlightAware
02:49PM 43.4090 -64.8520 262° West 423 487 36,000  Level FlightAware
02:50PM 43.3960 -64.9700 261° West 424 488 36,000  Level FlightAware
02:51PM 43.3840 -65.0780 261° West 427 491 36,000  Level FlightAware
02:51PM 43.3700 -65.1970 261° West 429 494 36,000  Level FlightAware
02:52PM 43.3590 -65.2920 261° West 431 496 36,000  Level FlightAware
02:53PM 43.3460 -65.4130 262° West 432 497 36,000  Level FlightAware
02:53PM 43.3320 -65.5330 261° West 432 497 36,000  Level FlightAware
02:54PM 43.3180 -65.6440 260° West 436 502 36,000  Level FlightAware
02:56PM 43.2870 -65.9100 261° West 447 514 36,000  Level FlightAware
02:57PM 43.2630 -66.1080 261° West 453 521 36,000  Level FlightAware
02:58PM 43.2350 -66.3350 260° West 456 525 36,000  Level FlightAware
02:59PM 43.2100 -66.5360 260° West 457 526 36,000  Level FlightAware
03:01PM 43.1820 -66.7540 260° West 471 542 36,000  Level FlightAware
03:01PM 43.1670 -66.8710 260° West 471 542 36,000  Level FlightAware
03:02PM 43.1540 -66.9710 260° West 471 542 36,000  Level FlightAware
03:03PM 43.1410 -67.0710 260° West 471 542 36,000  Level FlightAware
03:03PM 43.1310 -67.1460 260° West 471 542 36,000  Level FlightAware
03:05PM 43.0490 -67.5570 255° West 36,000  Level FlightAware
03:07PM 43.0040 -67.7970 256° West 471 542 36,000  Level FlightAware
03:08PM 42.9670 -67.9970 256° West 470 541 36,000  Level FlightAware
03:08PM 42.9500 -68.0880 256° West 471 542 36,000  Level FlightAware
03:09PM 42.9210 -68.2400 255° West 466 536 36,000  Level FlightAware
03:10PM 42.8960 -68.3670 255° West 465 535 36,000  Level FlightAware
03:11PM 42.8660 -68.5230 255° West 468 539 36,000  Level FlightAware
03:11PM 42.8530 -68.5890 255° West 470 541 36,000  Level FlightAware
03:12PM 42.8270 -68.7240 255° West 468 539 36,000  Level FlightAware
03:13PM 42.8080 -68.8210 255° West 463 533 36,000  Level FlightAware
03:13PM 42.7860 -68.9340 255° West 453 521 36,000  Level FlightAware
03:14PM 42.7660 -69.0350 255° West 451 519 36,000  Level FlightAware
03:15PM 42.7460 -69.1340 255° West 36,000  Level FlightAware
03:16PM 42.7130 -69.2970 255° West 448 516 36,000  Level FlightAware
03:16PM 42.6920 -69.4000 255° West 455 524 36,000  Level FlightAware
03:17PM 42.6680 -69.5210 255° West 455 524 36,000  Level FlightAware
03:18PM 42.6450 -69.6350 255° West 456 525 36,000  Level FlightAware
03:18PM 42.6220 -69.7460 254° West 461 531 36,000  Level FlightAware
03:19PM 42.5960 -69.8690 254° West 464 534 36,000  Level FlightAware
03:20PM 42.5700 -69.9940 254° West 466 536 36,000  Level FlightAware
03:20PM 42.5440 -70.1190 254° West 465 535 36,000  Level FlightAware
03:21PM 42.5210 -70.2310 254° West 462 532 36,000  Level FlightAware
03:22PM 42.5020 -70.3200 254° West 461 531 36,000  Level FlightAware
03:22PM 42.4710 -70.4660 254° West 450 518 36,000  Level FlightAware
03:23PM 42.4470 -70.5740 253° West 450 518 36,000  Level FlightAware
03:24PM 42.4220 -70.6900 254° West 448 516 36,000  Level FlightAware
03:25PM 42.3990 -70.7990 254° West 446 513 36,000  Level FlightAware
03:25PM 42.3780 -70.8970 254° West 446 513 36,000  Level FlightAware
03:26PM 42.3540 -71.0280 256° West 443 510 36,000  Level FlightAware
03:27PM 42.3420 -71.1350 261° West 444 511 36,000  Level FlightAware
03:27PM 42.3290 -71.2590 262° West 444 511 36,000  Level FlightAware
03:28PM 42.3170 -71.3700 262° West 444 511 36,000  Level FlightAware
03:29PM 42.3050 -71.4800 262° West 443 510 36,000  Level FlightAware
03:29PM 42.2910 -71.6010 261° West 445 512 36,000  Level FlightAware
03:30PM 42.2790 -71.7110 262° West 448 516 36,000  Level FlightAware
03:31PM 42.2650 -71.8390 262° West 452 520 36,000  Level FlightAware
03:32PM 42.2520 -71.9500 261° West 455 524 36,000  Level FlightAware
03:32PM 42.2390 -72.0630 261° West 454 522 36,000  Level FlightAware
03:33PM 42.2250 -72.1870 261° West 453 521 36,000  Level FlightAware
03:34PM 42.2090 -72.2980 259° West 453 521 36,000  Level FlightAware
03:34PM 42.1760 -72.4180 250° West 456 525 36,000  Level FlightAware
03:35PM 42.1410 -72.5240 246° West 459 528 36,000  Level FlightAware
03:36PM 42.1060 -72.6270 245° Southwest 459 528 36,000  Level FlightAware
03:36PM 42.0680 -72.7400 246° West 456 525 36,000  Level FlightAware
03:37PM 42.0360 -72.8350 246° West 456 525 36,000  Level FlightAware
03:38PM 42.0050 -72.9220 244° Southwest 456 525 36,000  Level FlightAware
03:39PM 41.9520 -73.0730 245° Southwest 451 519 36,000  Level FlightAware
03:39PM 41.9218 -73.0958 209° Southwest 463 533 36,000  Level FlightAware ADS-B
03:39PM 41.8658 -73.1443 213° Southwest 465 535 36,000  Level FlightAware ADS-B
03:40PM 41.7965 -73.2022 212° Southwest 465 535 36,000  Level FlightAware ADS-B
03:41PM 41.7293 -73.2580 212° Southwest 467 537 36,000  Level FlightAware ADS-B
03:41PM 41.6504 -73.3332 215° Southwest 464 534 36,000  Level FlightAware ADS-B
03:42PM 41.6328 -73.3566 225° Southwest 458 527 36,000  Level FlightAware ADS-B
03:42PM 41.5907 -73.4193 228° Southwest 457 526 36,000  Level FlightAware ADS-B
03:43PM 41.5482 -73.4853 229° Southwest 457 526 36,000 720 Level FlightAware ADS-B
03:43PM 41.5044 -73.5535 229° Southwest 453 521 36,800 1,440 Climbing FlightAware ADS-B
03:44PM 41.4532 -73.6321 229° Southwest 451 519 37,700 960 Climbing FlightAware ADS-B
03:44PM 41.4074 -73.7018 229° Southwest 446 513 38,000 240 Climbing FlightAware ADS-B
03:45PM 41.3696 -73.7595 229° Southwest 443 510 38,000  Level FlightAware ADS-B
03:45PM 41.3626 -73.7701 229° Southwest 444 511 38,000  Level FlightAware ADS-B
03:45PM 41.3242 -73.8281 229° Southwest 446 513 38,000  Level FlightAware ADS-B
03:45PM 41.3176 -73.8378 228° Southwest 445 512 38,000  Level FlightAware ADS-B
03:46PM 41.2819 -73.8903 228° Southwest 447 514 38,000  Level FlightAware ADS-B
03:46PM 41.2652 -73.9146 228° Southwest 447 514 38,000  Level FlightAware ADS-B
03:47PM 41.2199 -73.9811 228° Southwest 450 518 38,000  Level FlightAware ADS-B
03:47PM 41.1682 -74.0570 228° Southwest 451 519 38,000  Level FlightAware ADS-B
03:48PM 41.1246 -74.1214 228° Southwest 451 519 38,000  Level FlightAware ADS-B
03:48PM 41.0843 -74.1877 231° Southwest 451 519 38,000  Level FlightAware ADS-B
03:49PM 41.0453 -74.2525 231° Southwest 450 518 38,000  Level FlightAware ADS-B
03:49PM 41.0026 -74.3223 231° Southwest 450 518 38,000  Level FlightAware ADS-B
03:50PM 40.9624 -74.3871 231° Southwest 448 516 38,000  Level FlightAware ADS-B
03:50PM 40.9157 -74.4619 230° Southwest 442 509 38,000  Level FlightAware ADS-B
03:51PM 40.8747 -74.5271 230° Southwest 442 509 38,000  Level FlightAware ADS-B
03:51PM 40.8342 -74.5920 230° Southwest 449 517 38,000  Level FlightAware ADS-B
03:52PM 40.7870 -74.6671 230° Southwest 447 514 38,000  Level FlightAware ADS-B
03:53PM 40.7459 -74.7328 230° Southwest 445 512 38,000  Level FlightAware ADS-B
03:53PM 40.7193 -74.7749 230° Southwest 446 513 38,000  Level FlightAware ADS-B
03:53PM 40.6801 -74.8373 230° Southwest 445 512 38,000  Level FlightAware ADS-B
03:54PM 40.6404 -74.9001 230° Southwest 446 513 38,000  Level FlightAware ADS-B
03:54PM 40.6012 -74.9623 230° Southwest 443 510 38,000  Level FlightAware ADS-B
03:55PM 40.5608 -75.0261 230° Southwest 438 504 38,000  Level FlightAware ADS-B
03:55PM 40.5195 -75.0914 230° Southwest 426 490 38,000  Level FlightAware ADS-B
03:56PM 40.4805 -75.1539 231° Southwest 426 490 38,000  Level FlightAware ADS-B
03:56PM 40.4442 -75.2109 230° Southwest 430 495 38,000  Level FlightAware ADS-B
03:57PM 40.4043 -75.2744 230° Southwest 430 495 38,000  Level FlightAware ADS-B
03:57PM 40.3637 -75.3382 230° Southwest 428 493 38,000  Level FlightAware ADS-B
03:58PM 40.3242 -75.4002 230° Southwest 428 493 38,000  Level FlightAware ADS-B
03:59PM 40.2854 -75.4613 230° Southwest 429 494 38,000  Level FlightAware ADS-B
03:59PM 40.2458 -75.5234 230° Southwest 428 493 38,000  Level FlightAware ADS-B
03:59PM 40.2137 -75.5785 233° Southwest 423 487 38,000  Level FlightAware ADS-B
04:00PM 40.1803 -75.6433 236° Southwest 422 486 38,000  Level FlightAware ADS-B
04:01PM 40.1443 -75.7148 237° Southwest 419 482 38,000  Level FlightAware ADS-B
04:01PM 40.1132 -75.7773 237° Southwest 409 471 38,000  Level FlightAware ADS-B
04:02PM 40.0778 -75.8478 237° Southwest 404 465 38,000  Level FlightAware ADS-B
04:02PM 40.0457 -75.9109 236° Southwest 403 464 38,000  Level FlightAware ADS-B
04:03PM 40.0096 -75.9818 236° Southwest 403 464 38,000  Level FlightAware ADS-B
04:03PM 39.9756 -76.0488 237° Southwest 401 461 38,000  Level FlightAware ADS-B
04:04PM 39.9439 -76.1104 236° Southwest 402 463 38,000  Level FlightAware ADS-B
04:04PM 39.9116 -76.1741 237° Southwest 400 460 38,000  Level FlightAware ADS-B
04:05PM 39.8800 -76.2358 236° Southwest 402 463 38,000  Level FlightAware ADS-B
04:05PM 39.8424 -76.3090 236° Southwest 407 468 38,000  Level FlightAware ADS-B
04:06PM 39.8108 -76.3702 236° Southwest 406 467 38,000  Level FlightAware ADS-B
04:06PM 39.7788 -76.4328 236° Southwest 402 463 38,000  Level FlightAware ADS-B
04:07PM 39.7443 -76.4996 236° Southwest 400 460 38,000  Level FlightAware ADS-B
04:08PM 39.7103 -76.5653 236° Southwest 399 459 38,000  Level FlightAware ADS-B
04:08PM 39.6794 -76.6252 236° Southwest 398 458 38,000  Level FlightAware ADS-B
04:09PM 39.6466 -76.6883 236° Southwest 396 456 38,000  Level FlightAware ADS-B
04:09PM 39.6148 -76.7494 236° Southwest 402 463 38,000  Level FlightAware ADS-B
04:10PM 39.5829 -76.8105 236° Southwest 404 465 38,000  Level FlightAware ADS-B
04:10PM 39.5504 -76.8727 236° Southwest 403 464 38,000  Level FlightAware ADS-B
04:11PM 39.5159 -76.9387 236° Southwest 400 460 38,000  Level FlightAware ADS-B
04:11PM 39.4872 -76.9838 231° Southwest 403 464 38,000  Level FlightAware ADS-B
04:12PM 39.4444 -77.0328 221° Southwest 408 470 38,000  Level FlightAware ADS-B
04:12PM 39.3986 -77.0810 219° Southwest 408 470 38,000  Level FlightAware ADS-B
04:13PM 39.3542 -77.1271 219° Southwest 405 466 38,000  Level FlightAware ADS-B
04:13PM 39.3095 -77.1736 219° Southwest 406 467 38,000  Level FlightAware ADS-B
04:14PM 39.2651 -77.2200 219° Southwest 409 471 38,000  Level FlightAware ADS-B
04:14PM 39.2117 -77.2756 219° Southwest 409 471 38,000  Level FlightAware ADS-B
04:15PM 39.1656 -77.3240 219° Southwest 411 473 38,000  Level FlightAware ADS-B
04:15PM 39.1213 -77.3703 219° Southwest 409 471 38,000  Level FlightAware ADS-B
04:16PM 39.0746 -77.4192 219° Southwest 408 470 38,000  Level FlightAware ADS-B
04:16PM 39.0306 -77.4648 219° Southwest 409 471 38,000  Level FlightAware ADS-B
04:17PM 38.9714 -77.5271 219° Southwest 409 471 38,000  Level FlightAware ADS-B
04:18PM 38.9121 -77.6050 226° Southwest 406 467 38,000  Level FlightAware ADS-B
04:18PM 38.8664 -77.6744 230° Southwest 400 460 38,000  Level FlightAware ADS-B
04:19PM 38.7944 -77.7839 230° Southwest 398 458 38,000  Level FlightAware ADS-B
04:20PM 38.7540 -77.8450 230° Southwest 402 463 38,000  Level FlightAware
04:21PM 38.7160 -77.9020 229° Southwest 403 464 38,000  Level FlightAware
04:21PM 38.6610 -77.9850 230° Southwest 407 468 38,000  Level FlightAware
04:22PM 38.6030 -78.0700 229° Southwest 408 470 38,000  Level FlightAware
04:23PM 38.5450 -78.1570 230° Southwest 407 468 38,000  Level FlightAware
04:24PM 38.4850 -78.2480 230° Southwest 400 460 38,000  Level FlightAware
04:25PM 38.4290 -78.3300 229° Southwest 404 465 38,000  Level FlightAware
04:29PM 38.0960 -78.8220 229° Southwest 397 457 38,000  Level FlightAware
04:34PM 37.7310 -79.3420 229° Southwest 38,000  Level FlightAware
04:35PM 37.7110 -79.3690 227° Southwest 382 440 38,000  Level FlightAware
04:35PM 37.6620 -79.4360 227° Southwest 382 440 38,000  Level FlightAware
04:36PM 37.6210 -79.4920 227° Southwest 382 440 38,000  Level FlightAware
04:37PM 37.5800 -79.5470 227° Southwest 382 440 38,000  Level FlightAware
04:37PM 37.5390 -79.6030 227° Southwest 382 440 38,000  Level FlightAware
04:38PM 37.4980 -79.6580 227° Southwest 382 440 38,000  Level FlightAware
04:39PM 37.4570 -79.7130 227° Southwest 382 440 38,000  Level FlightAware
04:39PM 37.4060 -79.7820 227° Southwest 382 440 38,000  Level FlightAware
04:40PM 37.3650 -79.8380 227° Southwest 382 440 38,000  Level FlightAware
04:41PM 37.3240 -79.8930 227° Southwest 382 440 38,000  Level FlightAware
04:41PM 37.2830 -79.9480 227° Southwest 382 440 38,000  Level FlightAware
04:42PM 37.2320 -80.0170 227° Southwest 382 440 38,000  Level FlightAware
04:43PM 37.1910 -80.0720 227° Southwest 382 440 38,000  Level FlightAware
04:44PM 37.1500 -80.1280 227° Southwest 382 440 38,000  Level FlightAware
04:44PM 37.1090 -80.1830 227° Southwest 382 440 38,000  Level FlightAware
04:45PM 37.0014 -80.3353 227° Southwest 381 438 38,000  Level Atlanta Center
04:46PM 36.9311 -80.4294 227° Southwest 381 438 38,000  Level Atlanta Center
04:47PM 36.8567 -80.5261 226° Southwest 381 438 38,000  Level Atlanta Center
04:48PM 36.7864 -80.6200 227° Southwest 381 438 38,000  Level Atlanta Center
04:53PM 36.3723 -81.1726 227° Southwest 383 441 38,000  Level FlightAware ADS-B
04:54PM 36.3282 -81.2303 227° Southwest 383 441 38,000  Level FlightAware ADS-B
04:54PM 36.2859 -81.2855 226° Southwest 383 441 38,000  Level FlightAware ADS-B
04:58PM 36.0540 -81.5868 226° Southwest 381 438 38,000  Level FlightAware ADS-B
04:58PM 36.0171 -81.6344 226° Southwest 381 438 38,000  Level FlightAware ADS-B
04:59PM 35.9688 -81.6967 226° Southwest 378 435 38,000  Level FlightAware ADS-B
04:59PM 35.9319 -81.7442 226° Southwest 379 436 38,000  Level FlightAware ADS-B
05:00PM 35.8952 -81.7914 226° Southwest 379 436 38,000  Level FlightAware ADS-B
05:00PM 35.8569 -81.8406 226° Southwest 379 436 38,000  Level FlightAware ADS-B
05:01PM 35.8206 -81.8872 226° Southwest 376 433 38,000 -420 Level FlightAware ADS-B
05:01PM 35.7829 -81.9355 226° Southwest 374 430 37,600 -1,680 Descending FlightAware ADS-B
05:02PM 35.7412 -81.9889 226° Southwest 376 433 36,200 -2,220 Descending FlightAware ADS-B
05:02PM 35.7034 -82.0370 226° Southwest 392 451 35,200 -1,200 Descending FlightAware ADS-B
05:03PM 35.6649 -82.0859 226° Southwest 401 461 35,000 -240 Descending FlightAware ADS-B
05:03PM 35.6254 -82.1361 226° Southwest 402 463 35,000  Level FlightAware ADS-B
05:04PM 35.5841 -82.1886 226° Southwest 402 463 35,000  Level FlightAware ADS-B
05:05PM 35.5444 -82.2392 226° Southwest 402 463 35,000  Level FlightAware ADS-B
05:05PM 35.5053 -82.2887 226° Southwest 405 466 35,000 -120 Level FlightAware ADS-B
05:06PM 35.4656 -82.3388 226° Southwest 402 463 34,900 -420 Descending FlightAware ADS-B
05:06PM 35.4248 -82.3904 226° Southwest 390 449 34,600 -960 Descending FlightAware ADS-B
05:07PM 35.3871 -82.4380 226° Southwest 382 440 33,900 -1,800 Descending FlightAware ADS-B
05:07PM 35.3501 -82.4847 226° Southwest 379 436 32,800 -2,340 Descending FlightAware ADS-B
05:08PM 35.3135 -82.5307 226° Southwest 378 435 31,600 -2,340 Descending FlightAware ADS-B
05:08PM 35.2765 -82.5771 226° Southwest 373 429 30,500 -1,980 Descending FlightAware ADS-B
05:09PM 35.2400 -82.6228 226° Southwest 368 423 29,600 -1,980 Descending FlightAware ADS-B
05:09PM 35.2033 -82.6686 226° Southwest 366 421 28,500 -2,160 Descending FlightAware ADS-B
05:10PM 35.1628 -82.7193 226° Southwest 366 421 27,300 -1,860 Descending FlightAware ADS-B
05:10PM 35.1230 -82.7690 226° Southwest 357 411 26,400 -1,620 Descending FlightAware ADS-B
05:11PM 35.0889 -82.8117 226° Southwest 350 403 25,600 -1,680 Descending FlightAware ADS-B
05:11PM 35.0550 -82.8539 226° Southwest 346 398 24,700 -1,800 Descending FlightAware ADS-B
05:12PM 35.0359 -82.8776 225° Southwest 344 396 24,200 -1,860 Descending FlightAware ADS-B
05:12PM 35.0018 -82.9174 224° Southwest 342 394 23,300 -1,140 Descending FlightAware ADS-B
05:13PM 34.9595 -82.9625 221° Southwest 370 426 23,000 -240 Descending FlightAware ADS-B
05:13PM 34.8897 -83.0331 220° Southwest 377 434 23,000  Level FlightAware ADS-B
05:14PM 34.8271 -83.0961 220° Southwest 386 444 23,000  Level FlightAware ADS-B
05:15PM 34.7713 -83.1529 220° Southwest 387 445 23,000  Level FlightAware ADS-B
05:15PM 34.7298 -83.1954 220° Southwest 386 444 23,000  Level FlightAware ADS-B
05:16PM 34.6886 -83.2375 220° Southwest 387 445 23,000  Level FlightAware ADS-B
05:16PM 34.6463 -83.2806 220° Southwest 390 449 23,000 -600 Level FlightAware ADS-B
05:17PM 34.6047 -83.3227 220° Southwest 385 443 22,400 -1,740 Descending FlightAware ADS-B
05:17PM 34.5638 -83.3641 220° Southwest 378 435 21,300 -2,040 Descending FlightAware ADS-B
05:18PM 34.4880 -83.4410 220° Southwest 369 425 19,300 -1,800 Descending FlightAware
05:19PM 34.4370 -83.4920 220° Southwest 354 407 18,300 -1,680 Descending FlightAware
05:20PM 34.3860 -83.5440 220° Southwest 340 391 17,100 -1,920 Descending FlightAware
05:21PM 34.3310 -83.5990 220° Southwest 333 383 15,600 -1,980 Descending FlightAware
05:21PM 34.2850 -83.6450 220° Southwest 331 381 14,300 -2,100 Descending FlightAware
05:22PM 34.2320 -83.6990 220° Southwest 324 373 12,700 -1,680 Descending FlightAware
05:23PM 34.1860 -83.7450 220° Southwest 311 358 12,000 -720 Descending FlightAware
05:23PM 34.1430 -83.7880 220° Southwest 318 366 11,800 -180 Descending FlightAware
05:24PM 34.0970 -83.8340 220° Southwest 318 366 11,800 -780 Level FlightAware
05:25PM 34.0120 -83.9250 222° Southwest 323 372 10,400 -1,140 Descending FlightAware
05:26PM 33.9860 -83.9500 219° Southwest 315 362 9,900 -900 Descending FlightAware
05:26PM 33.9600 -83.9620 201° Southwest 323 372 9,800 -180 Descending FlightAware
05:26PM 33.9160 -83.9590 177° South 309 356 9,800  Level FlightAware
05:27PM 33.8820 -83.9560 176° South 293 337 9,800 -780 Level FlightAware
05:27PM 33.8410 -83.9520 175° South 292 336 9,100 -1,380 Descending FlightAware
05:28PM 33.8200 -83.9500 175° South 292 336 8,800 -1,200 Descending FlightAware
05:28PM 33.7870 -83.9470 176° South 289 333 8,300 -1,200 Descending FlightAware
05:28PM 33.7740 -83.9450 173° South 288 331 8,100 -1,080 Descending FlightAware
05:29PM 33.7320 -83.9410 175° South 274 315 7,500 -1,200 Descending FlightAware
05:29PM 33.6990 -83.9380 176° South 272 313 6,900 -720 Descending FlightAware
05:30PM 33.6680 -83.9340 174° South 272 313 6,900 -180 Level FlightAware
05:30PM 33.6500 -83.9380 190° South 257 296 6,800 -180 Descending FlightAware
05:30PM 33.6230 -83.9480 197° South 257 296 6,800 -720 Level FlightAware
05:33PM 33.6320 -84.1750 273° West 4,700 -780 Descending FlightAware
05:34PM 33.6320 -84.2040 270° West 4,200 -780 Descending FlightAware
05:34PM 33.6320 -84.2390 270° West 3,700 -780 Descending FlightAware
05:37PM 33.6320 -84.3600 270° West 1,800 -720 Descending FlightAware
05:38PM 33.6333 -84.4000 270° West 137 158 1,400 -600 Descending Atlanta TRACON
05:40PM 33.6367 -84.4279 270° West  Level Estimated
05:47PM 33.6367 -84.4279 64° Northeast  Level Estimated